Teulon, Canada
Current Conditions -  °F | °C
As of 8:29 PM on Friday 28 Nov 2014 (Local Time) from CYWG Reporting Station
Light Snow Light Snow  
Wind Chill: -3°   Ceiling: 4200
Heat Index: 12°   Visibility: 6mi
Dew Point:   Wind: 13mph
Humidity: 79%   Direction: 100°E
Pressure: 29.68"   Gusts: NA
Location:  50.38°N, 97.27°W
Report Text: CYWG 290229Z 10011KT 6SM -SN OVC042 M11/M14 A2968 RMK SC8 PRESFR SLP071
Loading
Personal Weather Stations






























Interactive Weather Map New forecast layout! Learn more

10-Day Weather Forecast

Advertisements
Track Severe Weather on mobile